Home > Products > Valid Products > TAF

000
FTUS44 KJAN 020014 AAA
TAFJAN
TAF AMD
KJAN 020014Z 0200/0224 VRB10KT 6SM -SHRA VCTS SCT030 BKN050CB
      OVC100
     FM020200 VRB03KT P6SM FEW060 SCT100 BKN250
     FM021000 VRB03KT 5SM BR HZ FEW060 SCT120 BKN250
     FM021430 34005KT P6SM SCT060 SCT120 BKN250=



000
FTUS44 KJAN 012326
TAFHBG
TAF
KHBG 012326Z 0200/0224 VRB04KT P6SM SCT060 SCT250
     FM021100 00000KT 4SM BR SCT250
     FM021330 33005KT P6SM SCT050 SCT250=



000
FTUS44 KJAN 012326
TAFMEI
TAF
KMEI 012326Z 0200/0224 VRB03KT P6SM FEW060 SCT250
     FM021100 00000KT 4SM BR SCT250
     FM021330 36005KT P6SM SCT050 SCT250=



000
FTUS44 KJAN 012326
TAFGWO
TAF
KGWO 012326Z 0200/0224 05004KT P6SM VCSH SCT060 BKN120 BKN250
     FM021000 VRB03KT 6SM BR HZ FEW120 BKN250
     FM021400 28005KT P6SM FEW060 SCT120 BKN250=



000
FTUS44 KJAN 012326
TAFJAN
TAF
KJAN 012326Z 0200/0224 VRB10KT P6SM VCTS SCT040 BKN060CB OVC100
     FM020200 VRB03KT P6SM FEW060 SCT100 BKN250
     FM021000 VRB03KT 5SM BR HZ FEW060 SCT120 BKN250
     FM021430 34005KT P6SM SCT060 SCT120 BKN250=



000
FTUS44 KJAN 012326
TAFGLH
TAF
KGLH 012326Z 0200/0224 32005KT P6SM VCSH SCT050 BKN120 BKN250
     FM021000 VRB03KT 6SM BR HZ FEW120 BKN250
     FM021400 28006KT P6SM VCSH SCT050 BKN120 BKN250=



000
FTUS44 KJAN 011722
TAFHBG
TAF
KHBG 011722Z 0118/0218 07005KT P6SM SCT050
     FM021100 00000KT 4SM BR SCT250
     FM021330 19003KT P6SM FEW040=



000
FTUS44 KJAN 011722
TAFGLH
TAF
KGLH 011722Z 0118/0218 VRB05KT P6SM VCSH SCT050 BKN110
     FM021000 VRB03KT 4SM BR SCT250
     FM021330 33003KT P6SM SCT050=



000
FTUS44 KJAN 011722
TAFJAN
TAF
KJAN 011722Z 0118/0218 07005KT P6SM VCSH BKN050
     FM020100 VRB03KT P6SM SCT250
     FM021500 33003KT P6SM SCT050=



000
FTUS44 KJAN 011722
TAFGWO
TAF
KGWO 011722Z 0118/0218 06005KT P6SM SCT050=



000
FTUS44 KJAN 011722
TAFMEI
TAF
KMEI 011722Z 0118/0218 06005KT P6SM SCT060
     FM021100 00000KT 4SM BR SCT250
     FM021330 22003KT P6SM FEW040=



000
FTUS44 KJAN 011722
TAFMEI
TAF
KMEI 011722Z 0118/0218 06005KT P6SM SCT060
     FM021100 00000KT 4SM BR SCT250
     FM021330 22003KT P6SM FEW040=



000
FTUS44 KJAN 011722
TAFJAN
TAF
KJAN 011722Z 0118/0218 07005KT P6SM VCSH BKN050
     FM020100 VRB03KT P6SM SCT250
     FM021500 33003KT P6SM SCT050=



000
FTUS44 KJAN 011722
TAFGLH
TAF
KGLH 011722Z 0118/0218 VRB05KT P6SM VCSH SCT050 BKN110
     FM021000 VRB03KT 4SM BR SCT250
     FM021330 33003KT P6SM SCT050=



000
FTUS44 KJAN 011722
TAFGWO
TAF
KGWO 011722Z 0118/0218 06005KT P6SM SCT050=



000
FTUS44 KJAN 011722
TAFHBG
TAF
KHBG 011722Z 0118/0218 07005KT P6SM SCT050
     FM021100 00000KT 4SM BR SCT250
     FM021330 19003KT P6SM FEW040=



000
FTUS44 KJAN 011120
TAFGWO
TAF
KGWO 011120Z 0112/0212 10003KT P6SM FEW080 SCT090
     FM011400 VRB05KT P6SM FEW070 SCT150 SCT250=



000
FTUS44 KJAN 011120
TAFMEI
TAF
KMEI 011120Z 0112/0212 00000KT P6SM FEW070 SCT080
     FM011400 01006KT P6SM FEW050 SCT150 SCT250=



000
FTUS44 KJAN 011120
TAFHBG
TAF
KHBG 011120Z 0112/0212 00000KT 6SM BR SCT250
     FM011400 07005KT P6SM FEW050 SCT150 SCT250=



000
FTUS44 KJAN 011120
TAFJAN
TAF
KJAN 011120Z 0112/0212 00000KT P6SM FEW090 SCT250
     FM011400 01005KT P6SM FEW070 SCT150 SCT250=



000
FTUS44 KJAN 011120
TAFMEI
TAF
KMEI 011120Z 0112/0212 00000KT P6SM FEW070 SCT080
     FM011400 01006KT P6SM FEW050 SCT150 SCT250=



000
FTUS44 KJAN 011120
TAFGWO
TAF
KGWO 011120Z 0112/0212 10003KT P6SM FEW080 SCT090
     FM011400 VRB05KT P6SM FEW070 SCT150 SCT250=



000
FTUS44 KJAN 011120
TAFJAN
TAF
KJAN 011120Z 0112/0212 00000KT P6SM FEW090 SCT250
     FM011400 01005KT P6SM FEW070 SCT150 SCT250=



000
FTUS44 KJAN 011120
TAFGLH
TAF
KGLH 011120Z 0112/0212 15003KT 6SM BR HZ SCT150 SCT250
     FM011400 VRB05KT P6SM FEW070 SCT150 SCT250=



000
FTUS44 KJAN 011120
TAFGLH
TAF
KGLH 011120Z 0112/0212 15003KT 6SM BR HZ SCT150 SCT250
     FM011400 VRB05KT P6SM FEW070 SCT150 SCT250=



000
FTUS44 KJAN 011120
TAFHBG
TAF
KHBG 011120Z 0112/0212 00000KT 6SM BR SCT250
     FM011400 07005KT P6SM FEW050 SCT150 SCT250=



000
FTUS44 KJAN 010520
TAFGWO
TAF
KGWO 010520Z 0106/0206 09004KT P6SM FEW150 BKN250
     FM010900 12004KT 6SM BR HZ FEW150 SCT250
     FM011400 VRB05KT P6SM FEW070 SCT150 BKN250=



000
FTUS44 KJAN 010520
TAFGWO
TAF
KGWO 010520Z 0106/0206 09004KT P6SM FEW150 BKN250
     FM010900 12004KT 6SM BR HZ FEW150 SCT250
     FM011400 VRB05KT P6SM FEW070 SCT150 BKN250=



000
FTUS44 KJAN 010520
TAFHBG
TAF
KHBG 010520Z 0106/0206 VRB03KT P6SM FEW070 BKN250
     FM011100 VRB03KT 5SM BR HZ SCT250
     FM011400 07005KT P6SM FEW050 SCT150 BKN250=



000
FTUS44 KJAN 010520
TAFGLH
TAF
KGLH 010520Z 0106/0206 12004KT P6SM FEW070 SCT150 BKN250
     FM010900 12004KT 6SM BR HZ SCT150 BKN250
     FM011400 VRB05KT P6SM FEW070 SCT150 BKN250=



000
FTUS44 KJAN 010520
TAFJAN
TAF
KJAN 010520Z 0106/0206 12003KT P6SM FEW080 BKN250
     FM011400 01005KT P6SM FEW070 SCT150 BKN250=



000
FTUS44 KJAN 010520
TAFMEI
TAF
KMEI 010520Z 0106/0206 11004KT P6SM FEW070 BKN250
     FM011100 VRB03KT 5SM BR HZ SCT250
     FM011400 01006KT P6SM FEW050 SCT150 BKN250=



000
FTUS44 KJAN 010520
TAFHBG
TAF
KHBG 010520Z 0106/0206 VRB03KT P6SM FEW070 BKN250
     FM011100 VRB03KT 5SM BR HZ SCT250
     FM011400 07005KT P6SM FEW050 SCT150 BKN250=



000
FTUS44 KJAN 010520
TAFJAN
TAF
KJAN 010520Z 0106/0206 12003KT P6SM FEW080 BKN250
     FM011400 01005KT P6SM FEW070 SCT150 BKN250=



000
FTUS44 KJAN 010520
TAFMEI
TAF
KMEI 010520Z 0106/0206 11004KT P6SM FEW070 BKN250
     FM011100 VRB03KT 5SM BR HZ SCT250
     FM011400 01006KT P6SM FEW050 SCT150 BKN250=



000
FTUS44 KJAN 010520
TAFGLH
TAF
KGLH 010520Z 0106/0206 12004KT P6SM FEW070 SCT150 BKN250
     FM010900 12004KT 6SM BR HZ SCT150 BKN250
     FM011400 VRB05KT P6SM FEW070 SCT150 BKN250=



000
FTUS44 KJAN 312325
TAFJAN
TAF
KJAN 312325Z 0100/0124 12003KT P6SM FEW080 SCT250
     FM011400 01005KT P6SM FEW070 SCT150 BKN250=



000
FTUS44 KJAN 312325
TAFHBG
TAF
KHBG 312325Z 0100/0124 VRB03KT P6SM FEW070 SCT250
     FM011100 VRB03KT 5SM BR HZ SCT250
     FM011400 07005KT P6SM FEW050 SCT150 BKN250=



000
FTUS44 KJAN 312325
TAFGWO
TAF
KGWO 312325Z 0100/0124 09004KT P6SM FEW150 SCT250
     FM010900 12004KT 6SM BR HZ FEW150 SCT250
     FM011400 VRB05KT P6SM FEW070 SCT150 BKN250=



000
FTUS44 KJAN 312325
TAFGLH
TAF
KGLH 312325Z 0100/0124 12004KT P6SM FEW070 SCT150 BKN250
     FM010900 12004KT 6SM BR HZ SCT150 BKN250
     FM011400 VRB05KT P6SM FEW070 SCT150 BKN250=



000
FTUS44 KJAN 312325
TAFMEI
TAF
KMEI 312325Z 0100/0124 11004KT P6SM FEW070 SCT250
     FM011100 VRB03KT 5SM BR HZ SCT250
     FM011400 01006KT P6SM FEW050 SCT150 BKN250=



000
FTUS44 KJAN 312137 AAA
TAFGLH
TAF AMD
KGLH 312137Z 3122/0118 VRB05KT P6SM VCTS SCT050 BKN070CB
     FM010000 VRB03KT P6SM FEW070 BKN250=



000
FTUS44 KJAN 311720
TAFGLH
TAF
KGLH 311720Z 3118/0118 13005KT P6SM SCT050=



000
FTUS44 KJAN 311720
TAFGWO
TAF
KGWO 311720Z 3118/0118 08005KT P6SM SCT050=



000
FTUS44 KJAN 311720
TAFGWO
TAF
KGWO 311720Z 3118/0118 08005KT P6SM SCT050=



000
FTUS44 KJAN 311720
TAFGLH
TAF
KGLH 311720Z 3118/0118 13005KT P6SM SCT050=



000
FTUS44 KJAN 311720
TAFHBG
TAF
KHBG 311720Z 3118/0118 06005KT P6SM FEW050=



000
FTUS44 KJAN 311720
TAFMEI
TAF
KMEI 311720Z 3118/0118 03005KT P6SM FEW040=



000
FTUS44 KJAN 311720
TAFJAN
TAF
KJAN 311720Z 3118/0118 31006KT P6SM FEW050=



000
FTUS44 KJAN 311720
TAFMEI
TAF
KMEI 311720Z 3118/0118 03005KT P6SM FEW040=



000
FTUS44 KJAN 311720
TAFHBG
TAF
KHBG 311720Z 3118/0118 06005KT P6SM FEW050=



000
FTUS44 KJAN 311720
TAFJAN
TAF
KJAN 311720Z 3118/0118 31006KT P6SM FEW050=



000
FTUS44 KJAN 311156 AAA
TAFHBG
TAF AMD
KHBG 311156Z 3112/0112 00000KT 4SM BR SKC
     FM311330 31006KT P6SM FEW050=



000
FTUS44 KJAN 311156 AAA
TAFHBG
TAF AMD
KHBG 311156Z 3112/0112 00000KT 4SM BR SKC
     FM311330 31006KT P6SM FEW050=



000
FTUS44 KJAN 311120
TAFJAN
TAF
KJAN 311120Z 3112/0112 14004KT P6SM FEW070
     FM311500 31006KT P6SM FEW050=



000
FTUS44 KJAN 311120
TAFGLH
TAF
KGLH 311120Z 3112/0112 VRB03KT 6SM BR HZ SKC
     FM311500 22006KT P6SM SCT050=



000
FTUS44 KJAN 311120
TAFHBG
TAF
KHBG 311120Z 3112/0112 00000KT 5SM BR SKC
     FM311330 31006KT P6SM FEW050=



000
FTUS44 KJAN 311120
TAFMEI
TAF
KMEI 311120Z 3112/0112 VRB03KT 5SM BR SCT005
     FM311330 33006KT P6SM FEW040=



000
FTUS44 KJAN 311120
TAFGLH
TAF
KGLH 311120Z 3112/0112 VRB03KT 6SM BR HZ SKC
     FM311500 22006KT P6SM SCT050=



000
FTUS44 KJAN 311120
TAFJAN
TAF
KJAN 311120Z 3112/0112 14004KT P6SM FEW070
     FM311500 31006KT P6SM FEW050=



000
FTUS44 KJAN 311120
TAFGWO
TAF
KGWO 311120Z 3112/0112 10006KT P6SM FEW080
     FM311500 VRB05KT P6SM SCT050=



000
FTUS44 KJAN 311120
TAFGWO
TAF
KGWO 311120Z 3112/0112 10006KT P6SM FEW080
     FM311500 VRB05KT P6SM SCT050=



000
FTUS44 KJAN 311120
TAFMEI
TAF
KMEI 311120Z 3112/0112 VRB03KT 5SM BR SCT005
     FM311330 33006KT P6SM FEW040=



000
FTUS44 KJAN 311120
TAFHBG
TAF
KHBG 311120Z 3112/0112 00000KT 5SM BR SKC
     FM311330 31006KT P6SM FEW050=



000
FTUS44 KJAN 311101 AAB
TAFMEI
TAF AMD
KMEI 311101Z 3111/0106 00000KT P6SM SKC
     FM311400 33006KT P6SM FEW040=



000
FTUS44 KJAN 311101 AAB
TAFMEI
TAF AMD
KMEI 311101Z 3111/0106 00000KT P6SM SKC
     FM311400 33006KT P6SM FEW040=



000
FTUS44 KJAN 310905 AAA
TAFMEI
TAF AMD
KMEI 310905Z 3109/0106 VRB04KT P6SM FEW080
     FM311100 VRB03KT 4SM BR SCT005
     FM311330 33006KT P6SM FEW040=



000
FTUS44 KJAN 310520
TAFGWO
TAF
KGWO 310520Z 3106/0106 10006KT P6SM FEW080
     FM311000 VRB03KT 5SM BR HZ SKC
     FM311500 VRB05KT P6SM SCT050=



000
FTUS44 KJAN 310520
TAFGLH
TAF
KGLH 310520Z 3106/0106 13004KT P6SM FEW080
     FM311000 VRB03KT 6SM BR HZ SKC
     FM311500 22006KT P6SM SCT050=



000
FTUS44 KJAN 310520
TAFJAN
TAF
KJAN 310520Z 3106/0106 14004KT P6SM FEW070
     FM311500 31006KT P6SM FEW050=



000
FTUS44 KJAN 310520
TAFGWO
TAF
KGWO 310520Z 3106/0106 10006KT P6SM FEW080
     FM311000 VRB03KT 5SM BR HZ SKC
     FM311500 VRB05KT P6SM SCT050=



000
FTUS44 KJAN 310520
TAFGLH
TAF
KGLH 310520Z 3106/0106 13004KT P6SM FEW080
     FM311000 VRB03KT 6SM BR HZ SKC
     FM311500 22006KT P6SM SCT050=



000
FTUS44 KJAN 310520
TAFJAN
TAF
KJAN 310520Z 3106/0106 14004KT P6SM FEW070
     FM311500 31006KT P6SM FEW050=



000
FTUS44 KJAN 310520
TAFMEI
TAF
KMEI 310520Z 3106/0106 VRB04KT P6SM FEW080
     FM310830 00000KT 4SM BR FEW005
     FM311100 VRB03KT 3SM BR SCT005
     FM311330 33006KT P6SM FEW040=



000
FTUS44 KJAN 310520
TAFMEI
TAF
KMEI 310520Z 3106/0106 VRB04KT P6SM FEW080
     FM310830 00000KT 4SM BR FEW005
     FM311100 VRB03KT 3SM BR SCT005
     FM311330 33006KT P6SM FEW040=



000
FTUS44 KJAN 310520
TAFHBG
TAF
KHBG 310520Z 3106/0106 VRB03KT P6SM FEW080
     FM311100 00000KT 5SM BR SKC
     FM311330 31006KT P6SM FEW050=



000
FTUS44 KJAN 310520
TAFHBG
TAF
KHBG 310520Z 3106/0106 VRB03KT P6SM FEW080
     FM311100 00000KT 5SM BR SKC
     FM311330 31006KT P6SM FEW050=



000
FTUS44 KJAN 302330
TAFJAN
TAF
KJAN 302330Z 3100/3124 14004KT P6SM FEW070
     FM311500 31006KT P6SM FEW050=



000
FTUS44 KJAN 302330
TAFGWO
TAF
KGWO 302330Z 3100/3124 10006KT P6SM FEW080
     FM311000 VRB03KT 5SM BR HZ SKC
     FM311500 VRB05KT P6SM SCT050=



000
FTUS44 KJAN 302330
TAFHBG
TAF
KHBG 302330Z 3100/3124 VRB03KT P6SM FEW080
     FM311100 00000KT 5SM BR SKC
     FM311330 31006KT P6SM FEW050=



000
FTUS44 KJAN 302330
TAFMEI
TAF
KMEI 302330Z 3100/3124 VRB04KT P6SM FEW080
     FM310830 00000KT 4SM BR FEW005
     FM311100 VRB03KT 2SM BR SCT005
     FM311330 33006KT P6SM FEW040=



000
FTUS44 KJAN 302330
TAFGLH
TAF
KGLH 302330Z 3100/3124 13004KT P6SM FEW080
     FM311000 VRB03KT 6SM BR HZ SKC
     FM311500 22006KT P6SM SCT050=



000
FTUS44 KJAN 302330
TAFGLH
TAF
KGLH 302330Z 3100/3124 13004KT P6SM FEW080
     FM311000 VRB03KT 6SM BR HZ SKC
     FM311500 22006KT P6SM SCT050=



000
FTUS44 KJAN 302330
TAFJAN
TAF
KJAN 302330Z 3100/3124 14004KT P6SM FEW070
     FM311500 31006KT P6SM FEW050=



000
FTUS44 KJAN 302330
TAFHBG
TAF
KHBG 302330Z 3100/3124 VRB03KT P6SM FEW080
     FM311100 00000KT 5SM BR SKC
     FM311330 31006KT P6SM FEW050=



000
FTUS44 KJAN 302330
TAFGWO
TAF
KGWO 302330Z 3100/3124 10006KT P6SM FEW080
     FM311000 VRB03KT 5SM BR HZ SKC
     FM311500 VRB05KT P6SM SCT050=



000
FTUS44 KJAN 302330
TAFMEI
TAF
KMEI 302330Z 3100/3124 VRB04KT P6SM FEW080
     FM310830 00000KT 4SM BR FEW005
     FM311100 VRB03KT 2SM BR SCT005
     FM311330 33006KT P6SM FEW040=



000
FTUS44 KJAN 301720
TAFGLH
TAF
KGLH 301720Z 3018/3118 16005KT P6SM SCT060=



000
FTUS44 KJAN 301720
TAFHBG
TAF
KHBG 301720Z 3018/3118 07004KT P6SM SCT050
     FM311000 00000KT 4SM BR SKC
     FM311300 31005KT P6SM SKC=



000
FTUS44 KJAN 301720
TAFJAN
TAF
KJAN 301720Z 3018/3118 14005KT P6SM SCT060=



000
FTUS44 KJAN 301720
TAFMEI
TAF
KMEI 301720Z 3018/3118 10005KT P6SM VCSH SCT030 BKN050
     FM302000 08004KT P6SM VCTS SCT050CB BKN070
     FM310100 06003KT P6SM SCT100
     FM311000 00000KT 4SM BR SKC
     FM311300 31005KT P6SM SKC=



000
FTUS44 KJAN 301720
TAFGWO
TAF
KGWO 301720Z 3018/3118 16005KT P6SM SCT060=



000
FTUS44 KJAN 301120
TAFJAN
TAF
KJAN 301120Z 3012/3112 14005KT P6SM SCT040 SCT080=



000
FTUS44 KJAN 301120
TAFJAN
TAF
KJAN 301120Z 3012/3112 14005KT P6SM SCT040 SCT080=



000
FTUS44 KJAN 301120
TAFHBG
TAF
KHBG 301120Z 3012/3112 VRB03KT 6SM BR SCT007 SCT080
     FM301400 VRB04KT P6SM SCT030 SCT050=



000
FTUS44 KJAN 301120
TAFGWO
TAF
KGWO 301120Z 3012/3112 14004KT P6SM FEW040 SCT080=



000
FTUS44 KJAN 301120
TAFGLH
TAF
KGLH 301120Z 3012/3112 16004KT P6SM SCT080=



000
FTUS44 KJAN 301120
TAFHBG
TAF
KHBG 301120Z 3012/3112 VRB03KT 6SM BR SCT007 SCT080
     FM301400 VRB04KT P6SM SCT030 SCT050=



000
FTUS44 KJAN 301120
TAFMEI
TAF
KMEI 301120Z 3012/3112 12004KT 6SM BR SCT007 BKN030
     FM301500 10005KT P6SM VCSH SCT030 BKN050
     FM301800 04004KT P6SM VCTS SCT050CB BKN070
     FM302100 VRB04KT P6SM BKN080=



000
FTUS44 KJAN 301120
TAFGWO
TAF
KGWO 301120Z 3012/3112 14004KT P6SM FEW040 SCT080=



000
FTUS44 KJAN 301120
TAFGLH
TAF
KGLH 301120Z 3012/3112 16004KT P6SM SCT080=



000
FTUS44 KJAN 301120
TAFMEI
TAF
KMEI 301120Z 3012/3112 12004KT 6SM BR SCT007 BKN030
     FM301500 10005KT P6SM VCSH SCT030 BKN050
     FM301800 04004KT P6SM VCTS SCT050CB BKN070
     FM302100 VRB04KT P6SM BKN080=



000
FTUS44 KJAN 300528
TAFJAN
TAF
KJAN 300528Z 3006/3106 14005KT P6SM FEW040 SCT080=



000
FTUS44 KJAN 300528
TAFHBG
TAF
KHBG 300528Z 3006/3106 16003KT P6SM SCT080
     FM300900 VRB03KT 4SM BR SCT006
     FM301400 12004KT P6SM SCT030 SCT050=



000
FTUS44 KJAN 300528
TAFGWO
TAF
KGWO 300528Z 3006/3106 14004KT P6SM FEW040 SCT080=



000
FTUS44 KJAN 300528
TAFGLH
TAF
KGLH 300528Z 3006/3106 15004KT P6SM SCT080=



000
FTUS44 KJAN 300528
TAFMEI
TAF
KMEI 300528Z 3006/3106 13005KT P6SM SCT040 SCT080
     FM301000 12004KT 5SM BR SCT006 BKN015
     FM301500 10005KT P6SM SCT040=



    US Dept of Commerce
    National Oceanic and Atmospheric Administration
    National Weather Service
    1325 East West Highway
    Silver Spring, MD 20910
    Page Author: NWS Internet Services Team
Disclaimer
Information Quality
Credits
Glossary
Privacy Policy
Freedom of Information Act (FOIA)
About Us
Career Opportunities